METAR Data
IDs: Format: Raw Decoded Include TAF

Data at: 0245 UTC 29 Nov 2020

METAR for:KSHL (Sheldon Muni, IA, US)
Text:KSHL 290235Z AUTO 21004KT 10SM CLR 02/M01 A2991 RMK AO2
Temperature: 2.0°C ( 36°F)
Dewpoint: -1.0°C ( 30°F) [RH = 80%]
Pressure (altimeter):29.91 inches Hg (1013.0 mb)
Winds:from the SSW (210 degrees) at 5 MPH (4 knots; 2.1 m/s)
Visibility:10 or more sm (16+ km)
Ceiling:at least 12,000 feet AGL
Clouds:sky clear below 12,000 feet AGL
QC Flag:automated observation with no human augmentation